BUF weather

Buffalo Niagara International Airport
Buffalo, New York, United States

Public forecast

Using degrees Fahrenheit for public forecast. Weather courtesy of forecast.io.

METAR (pilot weather report)

Retrieved 2018/09/21 18:54 UTC (20 minutes ago):

KBUF 211854Z 23021G34KT 10SM FEW055 FEW075 SCT150 31/20 A2976 RMK AO2 PK WND 25038/1816 SLP072 T03110200

TAF (pilot weather forecast)

Retrieved 2018/09/21 18:33 UTC (41 minutes ago):

TAF KBUF 211730Z 2118/2218 21022G32KT P6SM FEW060 FM212000 22026G44KT P6SM BKN140 FM212100 23022G37KT 6SM -SHRA VCTS OVC040CB TEMPO 2122/2123 4SM -SHRA OVC025 FM220200 25019G30KT P6SM OVC060 TEMPO 2202/2203 4SM -SHRA OVC040 FM220300 28016G26KT P6SM SCT080 FM221200 36011KT P6SM BKN045 FM221700 04009KT P6SM SCT080